Carl R Keller Field


Codes: KPCW/
Name: Carl R Keller Field
City: Port Clinton
Country: United States
Elevation: 590 ft.

Photos at Carl R Keller Field


   Photos courtesy of SpottingLog. You can add your own sightings and photos by signing up for a free trial today.



No photos found.

Weather at Carl R Keller Field


Time (UTC)DescriptionTempratureWindCloud coverageVisibilityPressureHumidity
21-Jun-2024 12:00Clear Sky23°C2 mph, NE8%10000m1022hPa91%
21-Jun-2024 15:00Light Rain23°C7 mph, N19%10000m1023hPa85%
21-Jun-2024 18:00Scattered Clouds25°C2 mph, NE33%10000m1022hPa72%
21-Jun-2024 21:00Light Rain26°C0 mph, N73%10000m1020hPa71%
22-Jun-2024 00:00Light Rain27°C4 mph, SE53%10000m1018hPa73%
22-Jun-2024 03:00Few Clouds25°C7 mph, S11%10000m1018hPa81%
22-Jun-2024 06:00Broken Clouds25°C7 mph, SW52%10000m1018hPa79%
22-Jun-2024 09:00Clear Sky24°C9 mph, SW0%10000m1017hPa79%
22-Jun-2024 12:00Scattered Clouds25°C9 mph, SW44%10000m1017hPa80%
22-Jun-2024 15:00Scattered Clouds28°C11 mph, SW41%10000m1016hPa65%
22-Jun-2024 18:00Scattered Clouds30°C13 mph, SW25%10000m1013hPa56%
22-Jun-2024 21:00Overcast Clouds28°C11 mph, SW97%10000m1012hPa70%
23-Jun-2024 00:00Overcast Clouds27°C13 mph, S94%10000m1010hPa75%
23-Jun-2024 03:00Overcast Clouds26°C16 mph, SW95%10000m1009hPa72%
23-Jun-2024 06:00Overcast Clouds26°C18 mph, SW97%10000m1008hPa68%
23-Jun-2024 09:00Light Rain25°C16 mph, SW100%10000m1006hPa73%
23-Jun-2024 12:00Moderate Rain22°C18 mph, SW100%10000m1006hPa91%
23-Jun-2024 15:00Light Rain24°C20 mph, SW100%10000m1007hPa85%
23-Jun-2024 18:00Light Rain24°C16 mph, NW100%10000m1007hPa84%
23-Jun-2024 21:00Light Rain23°C16 mph, NW70%10000m1007hPa81%
24-Jun-2024 00:00Broken Clouds22°C11 mph, N83%10000m1008hPa82%
24-Jun-2024 03:00Overcast Clouds22°C9 mph, NE100%10000m1008hPa83%
24-Jun-2024 06:00Light Rain21°C9 mph, NE100%10000m1009hPa84%
24-Jun-2024 09:00Light Rain20°C7 mph, N100%10000m1010hPa82%
24-Jun-2024 12:00Overcast Clouds21°C4 mph, NE100%10000m1011hPa79%
24-Jun-2024 15:00Scattered Clouds22°C4 mph, N46%10000m1012hPa75%
24-Jun-2024 18:00Scattered Clouds23°C7 mph, NE29%10000m1012hPa72%
24-Jun-2024 21:00Clear Sky24°C4 mph, NE4%10000m1011hPa68%
25-Jun-2024 00:00Clear Sky25°C2 mph, E3%10000m1011hPa70%
25-Jun-2024 03:00Clear Sky23°C7 mph, SE0%10000m1011hPa76%
25-Jun-2024 06:00Clear Sky22°C11 mph, S0%10000m1011hPa76%
25-Jun-2024 09:00Clear Sky21°C11 mph, S5%10000m1011hPa80%
25-Jun-2024 12:00Few Clouds22°C16 mph, SW22%10000m1010hPa78%
25-Jun-2024 15:00Few Clouds27°C18 mph, SW15%10000m1009hPa68%
25-Jun-2024 18:00Broken Clouds30°C20 mph, SW58%10000m1007hPa62%
25-Jun-2024 21:00Light Rain31°C20 mph, SW94%10000m1005hPa64%
26-Jun-2024 00:00Scattered Clouds30°C18 mph, SW50%10000m1004hPa70%
26-Jun-2024 03:00Light Rain27°C16 mph, SW44%10000m1005hPa75%
26-Jun-2024 06:00Moderate Rain23°C4 mph, E69%10000m1006hPa88%
26-Jun-2024 09:00Overcast Clouds23°C18 mph, SW100%10000m1003hPa91%